Time;durP1;ratioP1;P1;durP2;ratioP2;P2;SDS_P1;SDS_P2;PMS_P1;PMS_P2;Temp;Humidity;BMP_temperature;BMP_pressure;BME280_temperature;BME280_humidity;BME280_pressure;Samples;Min_cycle;Max_cycle;Signal;HPM_P1;HPM_P2
2023/11/01 00:00:18;;;;;;;2.70;1.43;;;;;;;;;;5008174;28;20217;-82
2023/11/01 00:02:47;;;;;;;2.80;0.97;;;;;;;;;;4959792;28;20228;-82
2023/11/01 00:05:12;;;;;;;2.27;1.20;;;;;;;;;;4976235;28;20221;-83
2023/11/01 00:07:38;;;;;;;3.57;1.07;;;;;;;;;;4979387;28;20227;-81
2023/11/01 00:10:04;;;;;;;2.47;1.30;;;;;;;;;;4992597;28;20268;-84
2023/11/01 00:12:31;;;;;;;6.20;1.47;;;;;;;;;;4990218;28;20225;-83
2023/11/01 00:14:59;;;;;;;4.60;1.40;;;;;;;;;;4975181;28;20217;-84
2023/11/01 00:17:25;;;;;;;3.27;1.00;;;;;;;;;;4962146;28;20324;-84
2023/11/01 00:19:50;;;;;;;4.03;1.13;;;;;;;;;;4976161;28;20248;-83
2023/11/01 00:22:18;;;;;;;5.20;1.50;;;;;;;;;;4954514;28;20642;-83
2023/11/01 00:24:44;;;;;;;2.60;1.40;;;;;;;;;;4965683;28;20697;-84
2023/11/01 00:27:10;;;;;;;3.00;1.43;;;;;;;;;;4985044;28;20225;-82
2023/11/01 00:29:35;;;;;;;3.93;1.33;;;;;;;;;;4976951;28;20222;-84
2023/11/01 00:32:01;;;;;;;1.57;1.00;;;;;;;;;;4974611;28;20218;-85
2023/11/01 00:34:29;;;;;;;2.80;1.10;;;;;;;;;;4956044;28;20226;-84
2023/11/01 00:36:54;;;;;;;4.03;1.40;;;;;;;;;;4976347;28;20225;-83
2023/11/01 00:39:20;;;;;;;3.30;1.50;;;;;;;;;;4960036;28;20221;-84
2023/11/01 00:41:48;;;;;;;3.27;1.40;;;;;;;;;;4973793;28;20647;-83
2023/11/01 00:44:15;;;;;;;1.60;0.93;;;;;;;;;;4958978;28;20304;-83
2023/11/01 00:46:46;;;;;;;2.73;1.20;;;;;;;;;;4975714;28;20232;-84
2023/11/01 00:49:11;;;;;;;2.73;1.10;;;;;;;;;;4988375;28;20365;-83
2023/11/01 00:51:39;;;;;;;2.80;1.30;;;;;;;;;;4961863;28;20221;-84
2023/11/01 00:54:07;;;;;;;1.30;0.93;;;;;;;;;;4975604;28;20588;-83
2023/11/01 00:56:35;;;;;;;1.43;1.10;;;;;;;;;;4977675;28;20272;-83
2023/11/01 00:59:05;;;;;;;4.67;1.20;;;;;;;;;;4960833;28;20221;-82
2023/11/01 01:01:33;;;;;;;2.53;0.90;;;;;;;;;;4979506;28;20315;-83
2023/11/01 01:03:58;;;;;;;3.80;1.07;;;;;;;;;;4956754;28;20217;-83
2023/11/01 01:06:24;;;;;;;3.43;1.10;;;;;;;;;;4978183;28;20217;-86
2023/11/01 01:08:53;;;;;;;2.23;1.10;;;;;;;;;;4957910;28;20229;-83
2023/11/01 01:11:21;;;;;;;4.10;1.53;;;;;;;;;;4974120;28;20270;-83
2023/11/01 01:13:47;;;;;;;1.07;0.90;;;;;;;;;;4981460;28;20218;-83
2023/11/01 01:16:15;;;;;;;2.53;0.90;;;;;;;;;;4979393;28;20217;-83
2023/11/01 01:18:43;;;;;;;3.70;1.30;;;;;;;;;;4974460;28;20229;-82
2023/11/01 01:21:09;;;;;;;3.03;1.10;;;;;;;;;;4988834;28;20225;-83
2023/11/01 01:23:37;;;;;;;5.83;1.13;;;;;;;;;;4958107;28;20260;-82
2023/11/01 01:26:03;;;;;;;3.03;0.90;;;;;;;;;;4971736;28;20222;-84
2023/11/01 01:28:28;;;;;;;3.20;1.10;;;;;;;;;;4972766;28;20221;-82
2023/11/01 01:30:56;;;;;;;4.00;1.07;;;;;;;;;;4956711;28;20220;-83
2023/11/01 01:33:24;;;;;;;2.87;1.33;;;;;;;;;;4960292;28;20682;-82
2023/11/01 01:35:49;;;;;;;3.43;1.03;;;;;;;;;;4961288;28;20225;-83
2023/11/01 01:38:15;;;;;;;2.63;0.80;;;;;;;;;;4971197;28;20222;-81
2023/11/01 01:40:41;;;;;;;2.80;1.17;;;;;;;;;;4969162;28;20229;-82
2023/11/01 01:43:19;;;;;;;2.10;1.10;;;;;;;;;;4955254;28;20895;-82
2023/11/01 01:45:45;;;;;;;3.83;1.10;;;;;;;;;;4971534;28;20251;-83
2023/11/01 01:48:11;;;;;;;4.47;1.30;;;;;;;;;;4971642;28;21181;-83
2023/11/01 01:50:39;;;;;;;2.07;1.00;;;;;;;;;;4973053;28;20298;-83
2023/11/01 01:53:05;;;;;;;2.23;1.20;;;;;;;;;;4957587;28;20268;-83
2023/11/01 01:55:33;;;;;;;2.10;0.83;;;;;;;;;;4990132;28;20225;-83
2023/11/01 01:58:02;;;;;;;2.67;1.10;;;;;;;;;;4954352;28;20243;-83
2023/11/01 02:00:32;;;;;;;5.17;1.40;;;;;;;;;;4972103;28;20229;-83
2023/11/01 02:03:00;;;;;;;1.10;1.00;;;;;;;;;;4940397;28;20678;-82
2023/11/01 02:05:26;;;;;;;4.03;1.30;;;;;;;;;;4979163;28;20233;-84
2023/11/01 02:07:52;;;;;;;1.80;1.10;;;;;;;;;;4970442;28;20283;-83
2023/11/01 02:10:17;;;;;;;4.13;1.37;;;;;;;;;;4970300;28;20230;-83
2023/11/01 02:12:45;;;;;;;2.80;1.30;;;;;;;;;;4938350;28;20726;-82
2023/11/01 02:15:11;;;;;;;7.80;1.80;;;;;;;;;;4970195;28;20222;-83
2023/11/01 02:17:41;;;;;;;2.63;1.40;;;;;;;;;;4978893;28;20249;-83
2023/11/01 02:20:10;;;;;;;3.57;1.60;;;;;;;;;;4958163;28;20680;-82
2023/11/01 02:22:38;;;;;;;4.00;1.70;;;;;;;;;;4985364;28;20226;-83
2023/11/01 02:25:04;;;;;;;2.63;1.37;;;;;;;;;;4975419;28;20221;-83
2023/11/01 02:27:32;;;;;;;2.43;1.57;;;;;;;;;;4976952;28;20236;-84
2023/11/01 02:29:59;;;;;;;2.03;1.60;;;;;;;;;;4959014;28;20224;-83
2023/11/01 02:32:27;;;;;;;3.90;1.70;;;;;;;;;;4960172;28;20587;-84
2023/11/01 02:34:58;;;;;;;4.33;1.93;;;;;;;;;;4977899;28;20229;-84
2023/11/01 02:37:23;;;;;;;2.80;1.77;;;;;;;;;;4943630;28;20245;-83
2023/11/01 02:39:49;;;;;;;5.57;2.00;;;;;;;;;;4954064;28;20253;-83
2023/11/01 02:42:17;;;;;;;2.40;1.70;;;;;;;;;;4975183;28;20779;-83
2023/11/01 02:44:45;;;;;;;3.17;2.40;;;;;;;;;;4976150;28;20228;-84
2023/11/01 02:47:11;;;;;;;5.73;2.10;;;;;;;;;;4971270;28;20666;-83
2023/11/01 02:49:36;;;;;;;7.60;1.90;;;;;;;;;;5007282;28;20594;-84
2023/11/01 02:52:06;;;;;;;4.40;2.10;;;;;;;;;;4959730;28;20634;-84
2023/11/01 02:54:31;;;;;;;5.47;2.27;;;;;;;;;;4960255;28;20232;-83
2023/11/01 02:57:00;;;;;;;5.83;2.53;;;;;;;;;;4957239;28;20218;-84
2023/11/01 02:59:25;;;;;;;5.97;2.63;;;;;;;;;;4988533;28;20226;-83
2023/11/01 03:01:58;;;;;;;5.50;2.57;;;;;;;;;;4985067;28;20236;-83
2023/11/01 03:04:26;;;;;;;2.73;2.37;;;;;;;;;;4991882;28;20230;-83
2023/11/01 03:06:52;;;;;;;6.63;2.80;;;;;;;;;;4959392;28;20226;-84
2023/11/01 03:09:17;;;;;;;4.47;2.57;;;;;;;;;;4974723;28;20217;-83
2023/11/01 03:11:43;;;;;;;4.20;2.97;;;;;;;;;;4977163;28;20636;-84
2023/11/01 03:14:11;;;;;;;4.30;2.70;;;;;;;;;;4974911;28;20226;-83
2023/11/01 03:16:40;;;;;;;2.87;2.63;;;;;;;;;;4976741;28;20220;-83
2023/11/01 03:19:09;;;;;;;5.37;3.40;;;;;;;;;;4944136;28;20225;-84
2023/11/01 03:21:35;;;;;;;7.07;3.10;;;;;;;;;;4976947;28;20228;-84
2023/11/01 03:24:03;;;;;;;8.97;3.70;;;;;;;;;;4943795;28;21022;-84
2023/11/01 03:26:31;;;;;;;3.50;2.93;;;;;;;;;;4974642;28;20307;-85
2023/11/01 03:28:58;;;;;;;6.03;3.53;;;;;;;;;;4944323;28;20706;-85
2023/11/01 03:31:29;;;;;;;3.43;3.13;;;;;;;;;;4976554;28;20211;-83
2023/11/01 03:33:55;;;;;;;4.80;3.47;;;;;;;;;;4961334;28;20701;-85
2023/11/01 03:36:20;;;;;;;6.20;3.47;;;;;;;;;;4991271;28;20214;-84
2023/11/01 03:38:48;;;;;;;8.33;3.83;;;;;;;;;;4979900;28;20233;-83
2023/11/01 03:41:13;;;;;;;4.53;4.00;;;;;;;;;;4957283;28;20301;-83
2023/11/01 03:43:39;;;;;;;6.40;4.57;;;;;;;;;;4964469;28;20244;-84
2023/11/01 03:46:06;;;;;;;4.73;4.30;;;;;;;;;;4945356;28;20225;-83
2023/11/01 03:48:34;;;;;;;6.50;4.30;;;;;;;;;;4971897;28;20240;-83
2023/11/01 03:51:00;;;;;;;5.77;4.77;;;;;;;;;;4975257;28;20221;-83
2023/11/01 03:53:28;;;;;;;5.77;4.33;;;;;;;;;;4986068;28;20221;-83
2023/11/01 03:55:54;;;;;;;7.80;5.10;;;;;;;;;;4962732;28;20702;-83
2023/11/01 03:58:19;;;;;;;7.47;4.90;;;;;;;;;;4982974;28;20231;-80
2023/11/01 04:04:32;;;;;;;5.57;4.57;;;;;;;;;;5004029;28;20256;-81
2023/11/01 04:07:00;;;;;;;5.67;5.17;;;;;;;;;;4975960;28;20233;-81
2023/11/01 04:09:26;;;;;;;6.17;5.17;;;;;;;;;;4987463;28;20241;-80
2023/11/01 04:11:54;;;;;;;7.17;5.77;;;;;;;;;;5002833;28;20225;-81
2023/11/01 04:14:20;;;;;;;7.07;5.87;;;;;;;;;;4971845;28;20228;-81
2023/11/01 04:16:48;;;;;;;6.70;6.10;;;;;;;;;;4992379;28;20222;-80
2023/11/01 04:19:13;;;;;;;9.53;7.70;;;;;;;;;;4974505;28;20221;-81
2023/11/01 04:21:41;;;;;;;10.20;7.47;;;;;;;;;;4992289;28;20217;-80
2023/11/01 04:24:09;;;;;;;8.13;7.23;;;;;;;;;;4969344;28;20225;-86
2023/11/01 04:26:35;;;;;;;8.10;7.33;;;;;;;;;;4962508;28;20235;-84
2023/11/01 04:29:04;;;;;;;7.47;6.77;;;;;;;;;;4979326;28;20225;-83
2023/11/01 04:31:29;;;;;;;9.10;7.90;;;;;;;;;;4995335;28;20233;-84
2023/11/01 04:33:57;;;;;;;8.60;7.53;;;;;;;;;;4979179;28;20236;-84
2023/11/01 04:36:26;;;;;;;14.63;10.33;;;;;;;;;;4989503;28;20230;-83
2023/11/01 04:38:55;;;;;;;12.37;8.93;;;;;;;;;;4948317;28;20228;-84
2023/11/01 04:41:28;;;;;;;12.37;9.73;;;;;;;;;;4960227;28;20210;-81
2023/11/01 04:43:56;;;;;;;20.53;9.27;;;;;;;;;;4992370;28;20229;-82
2023/11/01 04:46:24;;;;;;;10.80;8.67;;;;;;;;;;4943213;28;20270;-84
2023/11/01 04:48:52;;;;;;;10.70;9.60;;;;;;;;;;4944607;28;20280;-78
2023/11/01 04:51:22;;;;;;;12.23;10.77;;;;;;;;;;4972853;28;21179;-78
2023/11/01 04:53:48;;;;;;;13.27;12.07;;;;;;;;;;4993874;28;20226;-78
2023/11/01 04:56:13;;;;;;;21.70;18.13;;;;;;;;;;4957012;28;20214;-77
2023/11/01 04:58:39;;;;;;;17.37;12.00;;;;;;;;;;5006661;28;20938;-78
2023/11/01 05:01:07;;;;;;;11.90;10.70;;;;;;;;;;4954800;28;20225;-78
2023/11/01 05:03:37;;;;;;;12.70;11.37;;;;;;;;;;4988942;28;20229;-77
2023/11/01 05:06:05;;;;;;;17.10;13.67;;;;;;;;;;4955111;28;20215;-78
2023/11/01 05:08:30;;;;;;;13.50;12.13;;;;;;;;;;4957891;28;20239;-80
2023/11/01 05:10:56;;;;;;;15.33;12.67;;;;;;;;;;4999054;28;20216;-78
2023/11/01 05:13:21;;;;;;;13.27;12.00;;;;;;;;;;4977747;28;20296;-79
2023/11/01 05:15:47;;;;;;;13.70;12.27;;;;;;;;;;5009640;28;20217;-80
2023/11/01 05:18:13;;;;;;;13.17;11.87;;;;;;;;;;4992357;28;20930;-79
2023/11/01 05:20:39;;;;;;;13.53;12.13;;;;;;;;;;4991364;28;20222;-80
2023/11/01 05:23:07;;;;;;;14.43;13.03;;;;;;;;;;4992911;28;20242;-79
2023/11/01 05:25:33;;;;;;;14.97;13.47;;;;;;;;;;4995230;28;20668;-79
2023/11/01 05:28:06;;;;;;;16.10;14.47;;;;;;;;;;5002373;28;20230;-79
2023/11/01 05:30:31;;;;;;;15.93;14.33;;;;;;;;;;5006031;28;20246;-78
2023/11/01 05:32:57;;;;;;;16.30;14.60;;;;;;;;;;4993100;28;20201;-79
2023/11/01 05:35:22;;;;;;;16.87;15.17;;;;;;;;;;5009325;28;20285;-77
2023/11/01 05:37:50;;;;;;;17.23;15.43;;;;;;;;;;4977435;28;20391;-79
2023/11/01 05:40:18;;;;;;;18.70;15.27;;;;;;;;;;4994330;28;20273;-79
2023/11/01 05:42:47;;;;;;;15.90;14.47;;;;;;;;;;5005681;28;20231;-78
2023/11/01 05:45:21;;;;;;;17.73;16.00;;;;;;;;;;4977678;28;20245;-79
2023/11/01 05:47:49;;;;;;;16.97;15.27;;;;;;;;;;4975463;28;20235;-79
2023/11/01 05:50:19;;;;;;;18.40;16.57;;;;;;;;;;4999492;28;20698;-79
2023/11/01 05:52:50;;;;;;;16.77;15.07;;;;;;;;;;4997099;28;20229;-79
2023/11/01 05:55:18;;;;;;;18.13;16.23;;;;;;;;;;4982465;28;20624;-79
2023/11/01 05:57:50;;;;;;;17.50;15.80;;;;;;;;;;4992869;28;20228;-79
2023/11/01 06:00:17;;;;;;;18.03;16.07;;;;;;;;;;4950537;28;20982;-80
2023/11/01 06:02:43;;;;;;;18.27;16.37;;;;;;;;;;4979427;28;20237;-79
2023/11/01 06:05:09;;;;;;;18.97;17.27;;;;;;;;;;4981281;28;20297;-78
2023/11/01 06:07:34;;;;;;;19.17;17.43;;;;;;;;;;5001661;28;20666;-79
2023/11/01 06:09:59;;;;;;;19.90;17.97;;;;;;;;;;5003132;28;20229;-79
2023/11/01 06:12:25;;;;;;;19.20;17.20;;;;;;;;;;4963394;28;20213;-78
2023/11/01 06:14:53;;;;;;;18.53;16.73;;;;;;;;;;4994054;28;20308;-79
2023/11/01 06:17:19;;;;;;;18.50;16.70;;;;;;;;;;4980869;28;20268;-79
2023/11/01 06:19:45;;;;;;;19.13;17.47;;;;;;;;;;4975283;28;20218;-79
2023/11/01 06:22:20;;;;;;;20.07;18.17;;;;;;;;;;4993831;28;20213;-79
2023/11/01 06:24:46;;;;;;;19.07;17.40;;;;;;;;;;4971380;28;20228;-79
2023/11/01 06:27:12;;;;;;;22.20;18.90;;;;;;;;;;4980908;28;20249;-80
2023/11/01 06:29:42;;;;;;;20.13;18.27;;;;;;;;;;4981240;28;20588;-80
2023/11/01 06:32:08;;;;;;;19.03;17.23;;;;;;;;;;4994145;28;20229;-79
2023/11/01 06:34:36;;;;;;;19.10;17.33;;;;;;;;;;4965481;28;20222;-80
2023/11/01 06:37:01;;;;;;;19.13;17.47;;;;;;;;;;4997546;28;20217;-79
2023/11/01 06:39:27;;;;;;;20.10;18.07;;;;;;;;;;4980916;28;20213;-79
2023/11/01 06:41:55;;;;;;;19.23;17.43;;;;;;;;;;5014152;28;20226;-79
2023/11/01 06:44:24;;;;;;;18.93;17.13;;;;;;;;;;4976953;28;20222;-79
2023/11/01 06:46:52;;;;;;;19.43;17.63;;;;;;;;;;4974884;28;20225;-79
2023/11/01 06:49:29;;;;;;;18.97;17.17;;;;;;;;;;4979663;28;20236;-79
2023/11/01 06:51:55;;;;;;;18.80;17.10;;;;;;;;;;4993338;28;20392;-80
2023/11/01 06:54:20;;;;;;;18.77;17.17;;;;;;;;;;4977712;28;20220;-79
2023/11/01 06:56:46;;;;;;;18.97;17.17;;;;;;;;;;4980037;28;20226;-79
2023/11/01 06:59:14;;;;;;;19.03;16.90;;;;;;;;;;4980494;28;20213;-80
2023/11/01 07:01:42;;;;;;;18.27;16.60;;;;;;;;;;4995221;28;20705;-79
2023/11/01 07:04:09;;;;;;;17.50;15.97;;;;;;;;;;4996571;28;20230;-79
2023/11/01 07:06:35;;;;;;;17.37;15.67;;;;;;;;;;4995741;28;20729;-80
2023/11/01 07:09:00;;;;;;;16.47;15.13;;;;;;;;;;4959590;28;20222;-79
2023/11/01 07:11:31;;;;;;;16.33;14.83;;;;;;;;;;4994379;28;20702;-79
2023/11/01 07:14:00;;;;;;;16.63;14.97;;;;;;;;;;4993773;28;20218;-80
2023/11/01 07:16:28;;;;;;;15.43;14.07;;;;;;;;;;4967321;28;20214;-78
2023/11/01 07:18:55;;;;;;;15.47;14.07;;;;;;;;;;4947740;28;20218;-79
2023/11/01 07:21:24;;;;;;;16.10;14.67;;;;;;;;;;4977360;28;20237;-79
2023/11/01 07:23:50;;;;;;;15.07;13.83;;;;;;;;;;4993233;28;20221;-80
2023/11/01 07:26:16;;;;;;;13.97;12.67;;;;;;;;;;4999596;28;20213;-80
2023/11/01 07:28:41;;;;;;;13.53;12.43;;;;;;;;;;4986046;28;20230;-80
2023/11/01 07:31:09;;;;;;;14.10;12.47;;;;;;;;;;4985101;28;20730;-80
2023/11/01 07:33:37;;;;;;;13.67;12.40;;;;;;;;;;4961107;28;20253;-79
2023/11/01 07:36:08;;;;;;;13.50;12.30;;;;;;;;;;4994143;28;20260;-79
2023/11/01 07:38:34;;;;;;;12.87;11.87;;;;;;;;;;4977143;28;20244;-80
2023/11/01 07:40:59;;;;;;;13.50;12.23;;;;;;;;;;4993868;28;20303;-79
2023/11/01 07:43:25;;;;;;;13.63;12.43;;;;;;;;;;4976209;28;20233;-80
2023/11/01 07:45:50;;;;;;;12.63;11.53;;;;;;;;;;4978459;28;20606;-79
2023/11/01 07:48:16;;;;;;;12.83;11.47;;;;;;;;;;4943139;28;20226;-79
2023/11/01 07:50:42;;;;;;;12.00;10.80;;;;;;;;;;4975167;28;20244;-78
2023/11/01 07:53:08;;;;;;;11.37;10.23;;;;;;;;;;4960656;28;20321;-79
2023/11/01 07:55:36;;;;;;;10.93;10.03;;;;;;;;;;4967477;28;20230;-80
2023/11/01 07:58:04;;;;;;;10.70;9.73;;;;;;;;;;4983446;28;20225;-79
2023/11/01 08:00:30;;;;;;;10.17;9.47;;;;;;;;;;4977675;28;20633;-78
2023/11/01 08:02:55;;;;;;;10.10;9.30;;;;;;;;;;5005261;28;20214;-79
2023/11/01 08:05:22;;;;;;;10.13;9.43;;;;;;;;;;4992345;28;20228;-79
2023/11/01 08:07:50;;;;;;;9.87;8.90;;;;;;;;;;4982862;28;20214;-79
2023/11/01 08:10:18;;;;;;;9.67;8.67;;;;;;;;;;4980787;28;20289;-79
2023/11/01 08:12:46;;;;;;;9.77;8.87;;;;;;;;;;4995109;28;20271;-79
2023/11/01 08:15:11;;;;;;;8.57;7.83;;;;;;;;;;4972476;28;20230;-80
2023/11/01 08:17:39;;;;;;;9.13;8.33;;;;;;;;;;4992164;28;21699;-80
2023/11/01 08:20:06;;;;;;;9.40;8.50;;;;;;;;;;4976075;28;20305;-78
2023/11/01 08:22:32;;;;;;;8.10;7.50;;;;;;;;;;4989659;28;20229;-79
2023/11/01 08:25:00;;;;;;;8.07;7.47;;;;;;;;;;4965102;28;20209;-79
2023/11/01 08:27:25;;;;;;;7.33;6.60;;;;;;;;;;4959718;28;20222;-79
2023/11/01 08:29:51;;;;;;;7.33;6.63;;;;;;;;;;5002403;28;20271;-79
2023/11/01 08:32:16;;;;;;;6.80;6.30;;;;;;;;;;4943469;28;20217;-78
2023/11/01 08:34:42;;;;;;;6.30;5.70;;;;;;;;;;4943889;28;20666;-79
2023/11/01 08:37:10;;;;;;;8.53;6.10;;;;;;;;;;4972810;28;20226;-79
2023/11/01 08:39:36;;;;;;;6.60;6.00;;;;;;;;;;4964385;28;20251;-78
2023/11/01 08:42:02;;;;;;;7.00;6.40;;;;;;;;;;4974377;28;20698;-79
2023/11/01 08:44:27;;;;;;;6.10;5.23;;;;;;;;;;4986108;28;20281;-80
2023/11/01 08:46:53;;;;;;;7.20;5.00;;;;;;;;;;4978216;28;20222;-80
2023/11/01 08:49:21;;;;;;;5.27;4.33;;;;;;;;;;4961437;28;20213;-80
2023/11/01 08:51:51;;;;;;;5.10;4.60;;;;;;;;;;4993356;28;20283;-80
2023/11/01 08:54:16;;;;;;;5.27;4.83;;;;;;;;;;4977401;28;20217;-79
2023/11/01 08:56:42;;;;;;;4.97;4.57;;;;;;;;;;4975872;28;20329;-82
2023/11/01 08:59:07;;;;;;;4.50;4.10;;;;;;;;;;4984984;28;20218;-79
2023/11/01 09:01:35;;;;;;;5.43;4.63;;;;;;;;;;4970351;28;20304;-80
2023/11/01 09:04:03;;;;;;;3.97;3.67;;;;;;;;;;4970113;28;20227;-79
2023/11/01 09:06:31;;;;;;;4.23;3.57;;;;;;;;;;4989588;28;20303;-79
2023/11/01 09:08:59;;;;;;;4.03;3.10;;;;;;;;;;5002580;28;20213;-81
2023/11/01 09:11:25;;;;;;;4.60;2.87;;;;;;;;;;4986019;28;20248;-81
2023/11/01 09:13:51;;;;;;;3.33;3.03;;;;;;;;;;4987510;28;20217;-77
2023/11/01 09:16:20;;;;;;;4.20;3.80;;;;;;;;;;4975436;28;20233;-79
2023/11/01 09:18:45;;;;;;;5.87;4.50;;;;;;;;;;4979179;28;20933;-79
2023/11/01 09:21:11;;;;;;;3.83;3.43;;;;;;;;;;4988420;28;20248;-80
2023/11/01 09:23:39;;;;;;;7.33;3.30;;;;;;;;;;4978342;28;20746;-78
2023/11/01 09:26:06;;;;;;;3.23;2.63;;;;;;;;;;4960115;28;20222;-77
2023/11/01 09:28:32;;;;;;;3.43;2.23;;;;;;;;;;4980581;28;20627;-79
2023/11/01 09:31:00;;;;;;;3.17;1.87;;;;;;;;;;4958883;28;20215;-78
2023/11/01 09:33:26;;;;;;;2.40;2.00;;;;;;;;;;4965665;28;20687;-79
2023/11/01 09:35:54;;;;;;;2.93;1.87;;;;;;;;;;4979538;28;20250;-80
2023/11/01 09:38:20;;;;;;;1.87;1.73;;;;;;;;;;4973957;28;20229;-78
2023/11/01 09:40:46;;;;;;;3.63;1.90;;;;;;;;;;4976941;28;20225;-78
2023/11/01 09:43:14;;;;;;;1.87;1.73;;;;;;;;;;4992095;28;20261;-77
2023/11/01 09:45:40;;;;;;;2.60;1.50;;;;;;;;;;4985405;28;20221;-79
2023/11/01 09:48:05;;;;;;;4.07;1.70;;;;;;;;;;4991050;28;20648;-78
2023/11/01 09:50:35;;;;;;;3.47;2.10;;;;;;;;;;4996385;28;20316;-79
2023/11/01 09:53:02;;;;;;;4.27;1.87;;;;;;;;;;4993323;28;20226;-80
2023/11/01 09:55:28;;;;;;;1.90;1.63;;;;;;;;;;4955223;28;20217;-78
2023/11/01 09:57:53;;;;;;;2.97;1.77;;;;;;;;;;4996579;28;20377;-79
2023/11/01 10:00:19;;;;;;;2.40;1.53;;;;;;;;;;4966631;28;20230;-79
2023/11/01 10:02:45;;;;;;;3.87;1.33;;;;;;;;;;4947038;28;20361;-80
2023/11/01 10:05:11;;;;;;;3.20;1.73;;;;;;;;;;4962727;28;20674;-79
2023/11/01 10:07:48;;;;;;;1.90;1.70;;;;;;;;;;4995518;28;20262;-79
2023/11/01 10:10:17;;;;;;;2.90;1.60;;;;;;;;;;4995454;28;20312;-79
2023/11/01 10:12:45;;;;;;;1.73;1.50;;;;;;;;;;4973421;28;20229;-80
2023/11/01 10:15:18;;;;;;;3.27;1.67;;;;;;;;;;4964653;28;20855;-79
2023/11/01 10:17:48;;;;;;;2.20;1.40;;;;;;;;;;4976452;28;20232;-79
2023/11/01 10:20:31;;;;;;;1.77;1.30;;;;;;;;;;4983845;28;20221;-78
2023/11/01 10:22:57;;;;;;;1.00;1.00;;;;;;;;;;4999726;28;20233;-78
2023/11/01 10:25:31;;;;;;;1.97;1.20;;;;;;;;;;5021890;28;20227;-81
2023/11/01 10:27:57;;;;;;;5.27;1.43;;;;;;;;;;4951997;28;20268;-79
2023/11/01 10:30:22;;;;;;;2.00;1.10;;;;;;;;;;4983509;28;20218;-79
2023/11/01 10:32:54;;;;;;;0.90;0.90;;;;;;;;;;4984180;28;20224;-78
2023/11/01 10:35:20;;;;;;;1.87;0.90;;;;;;;;;;5003815;28;20233;-77
2023/11/01 10:37:47;;;;;;;0.80;0.80;;;;;;;;;;5008795;28;20228;-81
2023/11/01 10:40:18;;;;;;;1.87;1.00;;;;;;;;;;4975910;28;20229;-77
2023/11/01 10:42:44;;;;;;;1.27;0.90;;;;;;;;;;5013831;28;20241;-81
2023/11/01 10:45:13;;;;;;;6.13;1.03;;;;;;;;;;4995253;28;20216;-80
2023/11/01 10:47:43;;;;;;;0.87;0.70;;;;;;;;;;4962605;28;20248;-78
2023/11/01 10:50:09;;;;;;;1.73;1.00;;;;;;;;;;5000070;28;20695;-78
2023/11/01 10:52:34;;;;;;;1.47;0.93;;;;;;;;;;4998202;28;20297;-80
2023/11/01 10:55:00;;;;;;;1.37;0.90;;;;;;;;;;4984656;28;20237;-79
2023/11/01 10:57:28;;;;;;;1.07;1.07;;;;;;;;;;4973905;28;20248;-79
2023/11/01 11:00:18;;;;;;;1.03;1.00;;;;;;;;;;4984268;28;20216;-80
2023/11/01 11:03:10;;;;;;;1.47;1.17;;;;;;;;;;4981081;28;20241;-81
2023/11/01 11:05:40;;;;;;;1.00;1.00;;;;;;;;;;4966099;28;20683;-78
2023/11/01 11:08:11;;;;;;;3.23;1.20;;;;;;;;;;4985409;28;20236;-78
2023/11/01 11:10:42;;;;;;;1.77;1.67;;;;;;;;;;4983651;28;20226;-82
2023/11/01 11:13:16;;;;;;;1.13;1.03;;;;;;;;;;4987543;28;20229;-80
2023/11/01 11:15:51;;;;;;;2.03;1.40;;;;;;;;;;4995119;28;20224;-79
2023/11/01 11:18:22;;;;;;;1.83;1.03;;;;;;;;;;4995146;28;20244;-79
2023/11/01 11:20:49;;;;;;;1.40;1.10;;;;;;;;;;4971577;28;20231;-79
2023/11/01 11:23:19;;;;;;;2.33;0.80;;;;;;;;;;4985034;28;20214;-81
2023/11/01 11:25:49;;;;;;;1.87;1.00;;;;;;;;;;4967638;28;20285;-80
2023/11/01 11:28:22;;;;;;;1.20;1.03;;;;;;;;;;4992147;28;20239;-80
2023/11/01 11:31:11;;;;;;;1.00;1.00;;;;;;;;;;4990837;28;20237;-79
2023/11/01 11:33:46;;;;;;;1.50;1.40;;;;;;;;;;4988769;28;20237;-79
2023/11/01 11:36:12;;;;;;;1.40;1.20;;;;;;;;;;5010466;28;20288;-80
2023/11/01 11:38:38;;;;;;;2.07;1.40;;;;;;;;;;4982930;28;20225;-81
2023/11/01 11:41:20;;;;;;;1.27;1.20;;;;;;;;;;4979313;28;20327;-79
2023/11/01 11:44:14;;;;;;;1.50;1.40;;;;;;;;;;4996212;28;20252;-78
2023/11/01 11:46:41;;;;;;;1.60;1.50;;;;;;;;;;4996722;28;20209;-80
2023/11/01 11:49:22;;;;;;;2.37;1.83;;;;;;;;;;4983806;28;20213;-79
2023/11/01 11:51:49;;;;;;;2.17;1.40;;;;;;;;;;4974378;28;20229;-79
2023/11/01 11:54:15;;;;;;;1.47;1.33;;;;;;;;;;4954533;28;20235;-80
2023/11/01 11:56:41;;;;;;;3.87;1.50;;;;;;;;;;4976159;28;20833;-80
2023/11/01 11:59:08;;;;;;;5.87;1.63;;;;;;;;;;4996484;28;20269;-80
2023/11/01 12:01:34;;;;;;;1.93;1.60;;;;;;;;;;5004768;28;20221;-77
2023/11/01 12:04:01;;;;;;;1.77;1.40;;;;;;;;;;4970179;28;20638;-77
2023/11/01 12:06:41;;;;;;;3.00;1.87;;;;;;;;;;4983537;28;20214;-78
2023/11/01 12:09:24;;;;;;;1.33;1.23;;;;;;;;;;4979964;28;20264;-78
2023/11/01 12:11:50;;;;;;;3.03;1.53;;;;;;;;;;5004414;28;20285;-78
2023/11/01 12:14:18;;;;;;;3.63;1.60;;;;;;;;;;4975408;28;20244;-79
2023/11/01 12:16:43;;;;;;;5.13;1.70;;;;;;;;;;4979915;28;20230;-79
2023/11/01 12:19:18;;;;;;;3.57;1.70;;;;;;;;;;4973829;28;20292;-81
2023/11/01 12:21:45;;;;;;;1.50;1.40;;;;;;;;;;4976091;28;20224;-79
2023/11/01 12:24:17;;;;;;;2.53;1.43;;;;;;;;;;4976817;28;20236;-82
2023/11/01 12:27:01;;;;;;;2.50;1.60;;;;;;;;;;4977378;28;20240;-79
2023/11/01 12:29:33;;;;;;;3.50;1.60;;;;;;;;;;4982757;28;20611;-79
2023/11/01 12:32:06;;;;;;;2.03;1.57;;;;;;;;;;4973951;28;20222;-78
2023/11/01 12:34:34;;;;;;;4.37;1.83;;;;;;;;;;4974357;28;20700;-80
2023/11/01 12:37:03;;;;;;;3.20;1.40;;;;;;;;;;4990532;28;20229;-80
2023/11/01 12:39:30;;;;;;;3.43;1.50;;;;;;;;;;4973625;28;20244;-81
2023/11/01 12:41:56;;;;;;;3.67;1.80;;;;;;;;;;4970491;28;20237;-79
2023/11/01 12:44:41;;;;;;;2.77;1.70;;;;;;;;;;4963915;28;20237;-78
2023/11/01 12:47:42;;;;;;;2.37;1.50;;;;;;;;;;4969667;28;20225;-81
2023/11/01 12:50:31;;;;;;;6.43;1.70;;;;;;;;;;4970310;28;20221;-81
2023/11/01 12:52:59;;;;;;;1.93;1.70;;;;;;;;;;4995486;28;20225;-80
2023/11/01 12:55:26;;;;;;;5.83;1.60;;;;;;;;;;4979971;28;20251;-82
2023/11/01 12:57:54;;;;;;;1.77;1.43;;;;;;;;;;4990439;28;20873;-81
2023/11/01 13:00:23;;;;;;;2.87;2.23;;;;;;;;;;4959646;28;20248;-80
2023/11/01 13:02:50;;;;;;;5.00;4.50;;;;;;;;;;4978802;28;20244;-81
2023/11/01 13:05:15;;;;;;;10.77;6.33;;;;;;;;;;4959135;28;20655;-81
2023/11/01 13:07:41;;;;;;;9.70;8.80;;;;;;;;;;4977035;28;20224;-81
2023/11/01 13:10:12;;;;;;;10.17;7.40;;;;;;;;;;4978028;28;20231;-80
2023/11/01 13:12:48;;;;;;;6.80;6.22;;;;;;;;;;4959122;28;20750;-81
2023/11/01 13:15:16;;;;;;;9.57;5.07;;;;;;;;;;4988682;28;20276;-80
2023/11/01 13:17:41;;;;;;;13.20;4.57;;;;;;;;;;4990045;28;20221;-79
2023/11/01 13:20:07;;;;;;;6.13;2.40;;;;;;;;;;4970315;28;20244;-82
2023/11/01 13:22:33;;;;;;;3.87;2.30;;;;;;;;;;4960295;28;20221;-79
2023/11/01 13:25:08;;;;;;;1.95;1.50;;;;;;;;;;4987221;28;20225;-82
2023/11/01 13:27:33;;;;;;;3.33;1.42;;;;;;;;;;4992045;28;21113;-82
2023/11/01 13:30:02;;;;;;;3.08;1.70;;;;;;;;;;4992564;28;20217;-84
2023/11/01 13:32:29;;;;;;;1.87;1.37;;;;;;;;;;4991611;28;20221;-82
2023/11/01 13:34:55;;;;;;;3.87;1.60;;;;;;;;;;4975252;28;20325;-82
2023/11/01 13:37:21;;;;;;;4.50;1.23;;;;;;;;;;4987846;28;20247;-81
2023/11/01 13:39:49;;;;;;;2.60;1.90;;;;;;;;;;4960620;28;20226;-82
2023/11/01 13:42:14;;;;;;;3.05;2.47;;;;;;;;;;4991969;28;20304;-81
2023/11/01 13:44:40;;;;;;;4.55;4.15;;;;;;;;;;4995519;28;20252;-83
2023/11/01 13:47:06;;;;;;;6.00;5.22;;;;;;;;;;4993050;28;20270;-82
2023/11/01 13:49:38;;;;;;;4.40;3.87;;;;;;;;;;4969227;28;20639;-83
2023/11/01 13:52:06;;;;;;;4.75;4.22;;;;;;;;;;4978768;28;20232;-82
2023/11/01 13:54:32;;;;;;;6.38;5.05;;;;;;;;;;4995155;28;20308;-81
2023/11/01 13:56:57;;;;;;;7.40;4.97;;;;;;;;;;4982611;28;20219;-83
2023/11/01 13:59:23;;;;;;;5.53;5.00;;;;;;;;;;5004533;28;20223;-83
2023/11/01 14:01:49;;;;;;;6.18;5.57;;;;;;;;;;4979282;28;20221;-85
2023/11/01 14:04:17;;;;;;;11.75;6.70;;;;;;;;;;4971529;28;20617;-82
2023/11/01 14:06:43;;;;;;;7.60;6.35;;;;;;;;;;4994777;28;20317;-82
2023/11/01 14:09:11;;;;;;;8.07;7.37;;;;;;;;;;4996054;28;20213;-83
2023/11/01 14:11:36;;;;;;;9.83;6.47;;;;;;;;;;4999755;28;20228;-82
2023/11/01 14:14:05;;;;;;;6.50;5.37;;;;;;;;;;4983393;28;20221;-82
2023/11/01 14:16:31;;;;;;;7.40;5.50;;;;;;;;;;4974609;28;20229;-83
2023/11/01 14:18:57;;;;;;;8.93;6.75;;;;;;;;;;4996689;28;20264;-83
2023/11/01 14:21:25;;;;;;;6.30;5.63;;;;;;;;;;4981293;28;20232;-80
2023/11/01 14:23:51;;;;;;;8.87;3.57;;;;;;;;;;4998014;28;20249;-81
2023/11/01 14:26:20;;;;;;;6.03;4.23;;;;;;;;;;4989886;28;20222;-83
2023/11/01 14:28:45;;;;;;;5.87;4.57;;;;;;;;;;4999081;28;20248;-84
2023/11/01 14:31:11;;;;;;;5.70;4.60;;;;;;;;;;4988739;28;20651;-84
2023/11/01 14:33:37;;;;;;;4.82;4.40;;;;;;;;;;4998805;28;20225;-82
2023/11/01 14:36:06;;;;;;;5.78;4.68;;;;;;;;;;4983110;28;20229;-84
2023/11/01 14:38:35;;;;;;;4.38;3.38;;;;;;;;;;4966077;28;20237;-84
2023/11/01 14:41:00;;;;;;;3.50;2.00;;;;;;;;;;4965522;28;20229;-80
2023/11/01 14:43:26;;;;;;;3.63;1.57;;;;;;;;;;4983649;28;20253;-85